sensor_id;sensor_type;location;lat;lon;timestamp;temperature;humidity
68433;DHT22;55412;51.350;17.056;2022-09-11T00:01:20;17.00;76.90
68433;DHT22;55412;51.350;17.056;2022-09-11T00:03:47;17.00;76.90
68433;DHT22;55412;51.350;17.056;2022-09-11T00:06:18;17.00;76.60
68433;DHT22;55412;51.350;17.056;2022-09-11T00:08:45;17.00;76.60
68433;DHT22;55412;51.350;17.056;2022-09-11T00:11:18;17.00;76.70
68433;DHT22;55412;51.350;17.056;2022-09-11T00:13:50;17.10;76.70
68433;DHT22;55412;51.350;17.056;2022-09-11T00:16:20;17.10;76.60
68433;DHT22;55412;51.350;17.056;2022-09-11T00:18:55;17.10;76.60
68433;DHT22;55412;51.350;17.056;2022-09-11T00:21:23;17.10;76.60
68433;DHT22;55412;51.350;17.056;2022-09-11T00:23:50;17.10;76.60
68433;DHT22;55412;51.350;17.056;2022-09-11T00:26:17;17.10;76.40
68433;DHT22;55412;51.350;17.056;2022-09-11T00:28:44;17.20;76.30
68433;DHT22;55412;51.350;17.056;2022-09-11T00:31:13;17.10;76.00
68433;DHT22;55412;51.350;17.056;2022-09-11T00:33:42;17.10;76.50
68433;DHT22;55412;51.350;17.056;2022-09-11T00:36:15;17.10;76.40
68433;DHT22;55412;51.350;17.056;2022-09-11T00:38:43;17.10;76.80
68433;DHT22;55412;51.350;17.056;2022-09-11T00:41:17;17.10;76.80
68433;DHT22;55412;51.350;17.056;2022-09-11T00:46:18;17.10;76.40
68433;DHT22;55412;51.350;17.056;2022-09-11T00:48:46;17.10;76.20
68433;DHT22;55412;51.350;17.056;2022-09-11T00:51:22;17.10;76.40
68433;DHT22;55412;51.350;17.056;2022-09-11T00:53:52;17.10;76.70
68433;DHT22;55412;51.350;17.056;2022-09-11T00:56:20;17.10;76.20
68433;DHT22;55412;51.350;17.056;2022-09-11T00:58:49;17.00;76.20
68433;DHT22;55412;51.350;17.056;2022-09-11T01:01:17;17.00;76.40
68433;DHT22;55412;51.350;17.056;2022-09-11T01:03:43;17.00;76.70
68433;DHT22;55412;51.350;17.056;2022-09-11T01:06:10;17.00;76.70
68433;DHT22;55412;51.350;17.056;2022-09-11T01:08:36;17.00;76.50
68433;DHT22;55412;51.350;17.056;2022-09-11T01:16:51;17.10;76.20
68433;DHT22;55412;51.350;17.056;2022-09-11T01:20:24;17.00;76.10
68433;DHT22;55412;51.350;17.056;2022-09-11T01:23:24;17.10;75.80
68433;DHT22;55412;51.350;17.056;2022-09-11T01:29:39;17.00;76.10
68433;DHT22;55412;51.350;17.056;2022-09-11T01:32:23;17.00;76.00
68433;DHT22;55412;51.350;17.056;2022-09-11T01:35:36;16.90;76.00
68433;DHT22;55412;51.350;17.056;2022-09-11T01:38:21;16.90;76.00
68433;DHT22;55412;51.350;17.056;2022-09-11T01:46:46;16.80;76.30
68433;DHT22;55412;51.350;17.056;2022-09-11T01:49:34;16.80;76.10
68433;DHT22;55412;51.350;17.056;2022-09-11T01:52:17;16.80;76.10
68433;DHT22;55412;51.350;17.056;2022-09-11T01:54:53;16.80;76.10
68433;DHT22;55412;51.350;17.056;2022-09-11T01:57:31;16.80;75.80
68433;DHT22;55412;51.350;17.056;2022-09-11T02:00:21;16.80;75.80
68433;DHT22;55412;51.350;17.056;2022-09-11T02:02:51;16.70;75.70
68433;DHT22;55412;51.350;17.056;2022-09-11T02:07:59;16.70;76.00
68433;DHT22;55412;51.350;17.056;2022-09-11T02:10:34;16.70;76.00
68433;DHT22;55412;51.350;17.056;2022-09-11T02:13:13;16.60;75.80
68433;DHT22;55412;51.350;17.056;2022-09-11T02:15:45;16.60;75.90
68433;DHT22;55412;51.350;17.056;2022-09-11T02:21:22;16.50;76.30
68433;DHT22;55412;51.350;17.056;2022-09-11T02:23:49;16.50;76.30
68433;DHT22;55412;51.350;17.056;2022-09-11T02:26:16;16.50;76.70
68433;DHT22;55412;51.350;17.056;2022-09-11T02:28:43;16.50;76.90
68433;DHT22;55412;51.350;17.056;2022-09-11T02:31:10;16.60;76.50
68433;DHT22;55412;51.350;17.056;2022-09-11T02:33:36;16.50;76.50
68433;DHT22;55412;51.350;17.056;2022-09-11T02:36:19;16.50;76.30
68433;DHT22;55412;51.350;17.056;2022-09-11T02:42:19;16.50;76.70
68433;DHT22;55412;51.350;17.056;2022-09-11T02:48:35;16.50;77.20
68433;DHT22;55412;51.350;17.056;2022-09-11T02:54:45;16.50;76.80
68433;DHT22;55412;51.350;17.056;2022-09-11T02:57:30;16.50;76.50
68433;DHT22;55412;51.350;17.056;2022-09-11T03:00:02;16.50;76.80
68433;DHT22;55412;51.350;17.056;2022-09-11T03:02:33;16.40;77.00
68433;DHT22;55412;51.350;17.056;2022-09-11T03:05:03;16.40;77.00
68433;DHT22;55412;51.350;17.056;2022-09-11T03:07:30;16.40;77.10
68433;DHT22;55412;51.350;17.056;2022-09-11T03:09:58;16.40;77.20
68433;DHT22;55412;51.350;17.056;2022-09-11T03:12:24;16.50;77.10
68433;DHT22;55412;51.350;17.056;2022-09-11T03:14:52;16.50;77.00
68433;DHT22;55412;51.350;17.056;2022-09-11T03:17:18;16.50;76.90
68433;DHT22;55412;51.350;17.056;2022-09-11T03:19:44;16.50;76.70
68433;DHT22;55412;51.350;17.056;2022-09-11T03:22:11;16.50;76.50
68433;DHT22;55412;51.350;17.056;2022-09-11T03:24:37;16.50;76.80
68433;DHT22;55412;51.350;17.056;2022-09-11T03:27:04;16.50;76.80
68433;DHT22;55412;51.350;17.056;2022-09-11T03:29:31;16.50;76.90
68433;DHT22;55412;51.350;17.056;2022-09-11T03:31:58;16.50;76.50
68433;DHT22;55412;51.350;17.056;2022-09-11T03:34:25;16.50;76.80
68433;DHT22;55412;51.350;17.056;2022-09-11T03:36:51;16.50;76.70
68433;DHT22;55412;51.350;17.056;2022-09-11T03:39:17;16.50;76.90
68433;DHT22;55412;51.350;17.056;2022-09-11T03:41:43;16.50;76.50
68433;DHT22;55412;51.350;17.056;2022-09-11T03:44:09;16.50;76.50
68433;DHT22;55412;51.350;17.056;2022-09-11T03:46:37;16.50;76.60
68433;DHT22;55412;51.350;17.056;2022-09-11T03:49:03;16.50;76.60
68433;DHT22;55412;51.350;17.056;2022-09-11T03:51:31;16.60;76.60
68433;DHT22;55412;51.350;17.056;2022-09-11T03:54:00;16.60;76.50
68433;DHT22;55412;51.350;17.056;2022-09-11T03:56:26;16.60;76.40
68433;DHT22;55412;51.350;17.056;2022-09-11T03:58:57;16.50;76.40
68433;DHT22;55412;51.350;17.056;2022-09-11T04:01:25;16.60;76.60
68433;DHT22;55412;51.350;17.056;2022-09-11T04:03:52;16.60;76.40
68433;DHT22;55412;51.350;17.056;2022-09-11T04:06:18;16.60;76.50
68433;DHT22;55412;51.350;17.056;2022-09-11T04:08:45;16.60;76.50
68433;DHT22;55412;51.350;17.056;2022-09-11T04:11:11;16.60;76.50
68433;DHT22;55412;51.350;17.056;2022-09-11T04:13:40;16.60;76.40
68433;DHT22;55412;51.350;17.056;2022-09-11T04:16:09;16.60;76.40
68433;DHT22;55412;51.350;17.056;2022-09-11T04:18:41;16.60;76.40
68433;DHT22;55412;51.350;17.056;2022-09-11T04:21:10;16.60;76.40
68433;DHT22;55412;51.350;17.056;2022-09-11T04:23:37;16.60;76.50
68433;DHT22;55412;51.350;17.056;2022-09-11T04:26:13;16.60;76.60
68433;DHT22;55412;51.350;17.056;2022-09-11T04:28:43;16.60;76.60
68433;DHT22;55412;51.350;17.056;2022-09-11T04:31:10;16.60;76.70
68433;DHT22;55412;51.350;17.056;2022-09-11T04:33:37;16.60;76.70
68433;DHT22;55412;51.350;17.056;2022-09-11T04:36:06;16.60;76.70
68433;DHT22;55412;51.350;17.056;2022-09-11T04:38:34;16.60;76.60
68433;DHT22;55412;51.350;17.056;2022-09-11T04:41:02;16.60;76.60
68433;DHT22;55412;51.350;17.056;2022-09-11T04:43:29;16.60;76.40
68433;DHT22;55412;51.350;17.056;2022-09-11T04:46:08;16.60;76.90
68433;DHT22;55412;51.350;17.056;2022-09-11T04:48:35;16.60;76.80
68433;DHT22;55412;51.350;17.056;2022-09-11T04:51:06;16.60;76.90
68433;DHT22;55412;51.350;17.056;2022-09-11T04:53:34;16.60;77.00
68433;DHT22;55412;51.350;17.056;2022-09-11T04:56:08;16.60;77.10
68433;DHT22;55412;51.350;17.056;2022-09-11T04:58:35;16.60;76.80
68433;DHT22;55412;51.350;17.056;2022-09-11T05:01:29;16.60;76.90
68433;DHT22;55412;51.350;17.056;2022-09-11T05:03:56;16.60;77.00
68433;DHT22;55412;51.350;17.056;2022-09-11T05:06:24;16.60;77.20
68433;DHT22;55412;51.350;17.056;2022-09-11T05:08:51;16.60;77.20
68433;DHT22;55412;51.350;17.056;2022-09-11T05:11:17;16.60;77.30
68433;DHT22;55412;51.350;17.056;2022-09-11T05:13:45;16.60;77.30
68433;DHT22;55412;51.350;17.056;2022-09-11T05:16:14;16.60;77.30
68433;DHT22;55412;51.350;17.056;2022-09-11T05:18:47;16.60;77.20
68433;DHT22;55412;51.350;17.056;2022-09-11T05:21:16;16.60;77.30
68433;DHT22;55412;51.350;17.056;2022-09-11T05:23:47;16.60;77.20
68433;DHT22;55412;51.350;17.056;2022-09-11T05:26:19;16.60;77.20
68433;DHT22;55412;51.350;17.056;2022-09-11T05:28:49;16.60;77.40
68433;DHT22;55412;51.350;17.056;2022-09-11T05:31:21;16.60;77.50
68433;DHT22;55412;51.350;17.056;2022-09-11T05:33:48;16.60;77.50
68433;DHT22;55412;51.350;17.056;2022-09-11T05:36:14;16.60;77.80
68433;DHT22;55412;51.350;17.056;2022-09-11T05:38:41;16.60;77.70
68433;DHT22;55412;51.350;17.056;2022-09-11T05:41:10;16.60;77.60
68433;DHT22;55412;51.350;17.056;2022-09-11T05:43:38;16.60;77.90
68433;DHT22;55412;51.350;17.056;2022-09-11T05:46:07;16.70;77.90
68433;DHT22;55412;51.350;17.056;2022-09-11T05:48:36;16.70;77.80
68433;DHT22;55412;51.350;17.056;2022-09-11T05:51:17;16.70;77.80
68433;DHT22;55412;51.350;17.056;2022-09-11T05:53:46;16.70;77.90
68433;DHT22;55412;51.350;17.056;2022-09-11T05:56:17;16.70;77.90
68433;DHT22;55412;51.350;17.056;2022-09-11T05:58:45;16.70;78.10
68433;DHT22;55412;51.350;17.056;2022-09-11T06:01:20;16.70;78.00
68433;DHT22;55412;51.350;17.056;2022-09-11T06:03:48;16.70;77.80
68433;DHT22;55412;51.350;17.056;2022-09-11T06:06:17;16.70;78.00
68433;DHT22;55412;51.350;17.056;2022-09-11T06:08:44;16.70;78.00
68433;DHT22;55412;51.350;17.056;2022-09-11T06:11:13;16.70;78.00
68433;DHT22;55412;51.350;17.056;2022-09-11T06:13:42;16.80;78.00
68433;DHT22;55412;51.350;17.056;2022-09-11T06:16:13;16.70;78.00
68433;DHT22;55412;51.350;17.056;2022-09-11T06:18:40;16.70;78.20
68433;DHT22;55412;51.350;17.056;2022-09-11T06:21:12;16.80;78.20
68433;DHT22;55412;51.350;17.056;2022-09-11T06:23:39;16.70;78.00
68433;DHT22;55412;51.350;17.056;2022-09-11T06:26:08;16.80;78.00
68433;DHT22;55412;51.350;17.056;2022-09-11T06:28:36;16.80;78.20
68433;DHT22;55412;51.350;17.056;2022-09-11T06:31:04;16.80;78.40
68433;DHT22;55412;51.350;17.056;2022-09-11T06:33:36;16.80;78.40
68433;DHT22;55412;51.350;17.056;2022-09-11T06:36:07;16.90;78.40
68433;DHT22;55412;51.350;17.056;2022-09-11T06:38:35;16.90;78.10
68433;DHT22;55412;51.350;17.056;2022-09-11T06:41:04;16.90;78.20
68433;DHT22;55412;51.350;17.056;2022-09-11T06:43:32;16.90;78.30
68433;DHT22;55412;51.350;17.056;2022-09-11T06:46:13;16.90;78.30
68433;DHT22;55412;51.350;17.056;2022-09-11T06:48:46;17.00;78.20
68433;DHT22;55412;51.350;17.056;2022-09-11T06:51:16;17.00;78.00
68433;DHT22;55412;51.350;17.056;2022-09-11T06:53:44;17.00;78.10
68433;DHT22;55412;51.350;17.056;2022-09-11T06:56:16;17.00;78.10
68433;DHT22;55412;51.350;17.056;2022-09-11T06:58:43;17.10;78.40
68433;DHT22;55412;51.350;17.056;2022-09-11T07:01:17;17.10;78.00
68433;DHT22;55412;51.350;17.056;2022-09-11T07:03:46;17.10;78.00
68433;DHT22;55412;51.350;17.056;2022-09-11T07:06:15;17.20;78.00
68433;DHT22;55412;51.350;17.056;2022-09-11T07:08:52;17.20;77.70
68433;DHT22;55412;51.350;17.056;2022-09-11T07:11:21;17.20;77.70
68433;DHT22;55412;51.350;17.056;2022-09-11T07:13:47;17.20;77.60
68433;DHT22;55412;51.350;17.056;2022-09-11T07:16:14;17.20;77.70
68433;DHT22;55412;51.350;17.056;2022-09-11T07:18:45;17.20;77.40
68433;DHT22;55412;51.350;17.056;2022-09-11T07:21:15;17.20;77.50
68433;DHT22;55412;51.350;17.056;2022-09-11T07:23:51;17.20;77.40
68433;DHT22;55412;51.350;17.056;2022-09-11T07:26:21;17.20;77.80
68433;DHT22;55412;51.350;17.056;2022-09-11T07:28:48;17.20;78.00
68433;DHT22;55412;51.350;17.056;2022-09-11T07:31:17;17.20;77.70
68433;DHT22;55412;51.350;17.056;2022-09-11T07:33:47;17.30;77.60
68433;DHT22;55412;51.350;17.056;2022-09-11T07:36:16;17.30;77.50
68433;DHT22;55412;51.350;17.056;2022-09-11T07:38:47;17.30;77.50
68433;DHT22;55412;51.350;17.056;2022-09-11T07:41:16;17.30;77.50
68433;DHT22;55412;51.350;17.056;2022-09-11T07:43:44;17.30;77.70
68433;DHT22;55412;51.350;17.056;2022-09-11T07:46:11;17.30;77.80
68433;DHT22;55412;51.350;17.056;2022-09-11T07:48:38;17.30;77.80
68433;DHT22;55412;51.350;17.056;2022-09-11T07:51:07;17.30;77.80
68433;DHT22;55412;51.350;17.056;2022-09-11T07:53:47;17.30;77.90
68433;DHT22;55412;51.350;17.056;2022-09-11T07:56:19;17.30;78.20
68433;DHT22;55412;51.350;17.056;2022-09-11T07:58:51;17.30;77.60
68433;DHT22;55412;51.350;17.056;2022-09-11T08:01:25;17.40;77.70
68433;DHT22;55412;51.350;17.056;2022-09-11T08:03:53;17.40;77.60
68433;DHT22;55412;51.350;17.056;2022-09-11T08:06:24;17.40;77.40
68433;DHT22;55412;51.350;17.056;2022-09-11T08:08:53;17.40;77.50
68433;DHT22;55412;51.350;17.056;2022-09-11T08:11:20;17.50;77.10
68433;DHT22;55412;51.350;17.056;2022-09-11T08:13:48;17.50;76.90
68433;DHT22;55412;51.350;17.056;2022-09-11T08:16:17;17.50;77.20
68433;DHT22;55412;51.350;17.056;2022-09-11T08:18:45;17.50;77.00
68433;DHT22;55412;51.350;17.056;2022-09-11T08:21:14;17.40;76.70
68433;DHT22;55412;51.350;17.056;2022-09-11T08:23:42;17.40;76.60
68433;DHT22;55412;51.350;17.056;2022-09-11T08:26:18;17.40;76.50
68433;DHT22;55412;51.350;17.056;2022-09-11T08:28:56;17.40;76.80
68433;DHT22;55412;51.350;17.056;2022-09-11T08:31:24;17.30;77.30
68433;DHT22;55412;51.350;17.056;2022-09-11T08:33:52;17.30;77.10
68433;DHT22;55412;51.350;17.056;2022-09-11T08:36:19;17.30;77.30
68433;DHT22;55412;51.350;17.056;2022-09-11T08:38:45;17.30;77.40
68433;DHT22;55412;51.350;17.056;2022-09-11T08:46:41;17.30;77.90
68433;DHT22;55412;51.350;17.056;2022-09-11T08:49:30;17.30;78.10
68433;DHT22;55412;51.350;17.056;2022-09-11T08:52:02;17.30;78.30
68433;DHT22;55412;51.350;17.056;2022-09-11T08:54:35;17.30;78.10
68433;DHT22;55412;51.350;17.056;2022-09-11T09:02:49;17.40;78.30
68433;DHT22;55412;51.350;17.056;2022-09-11T09:18:46;17.80;77.90
68433;DHT22;55412;51.350;17.056;2022-09-11T09:21:42;17.90;77.50
68433;DHT22;55412;51.350;17.056;2022-09-11T09:24:46;18.00;77.00
68433;DHT22;55412;51.350;17.056;2022-09-11T09:27:20;18.10;77.60
68433;DHT22;55412;51.350;17.056;2022-09-11T09:29:52;18.20;76.20
68433;DHT22;55412;51.350;17.056;2022-09-11T09:32:30;18.30;76.30
68433;DHT22;55412;51.350;17.056;2022-09-11T09:35:03;18.40;75.10
68433;DHT22;55412;51.350;17.056;2022-09-11T09:37:37;18.40;74.80
68433;DHT22;55412;51.350;17.056;2022-09-11T09:40:08;18.40;73.80
68433;DHT22;55412;51.350;17.056;2022-09-11T09:42:54;18.40;74.50
68433;DHT22;55412;51.350;17.056;2022-09-11T09:48:13;18.40;74.30
68433;DHT22;55412;51.350;17.056;2022-09-11T09:50:40;18.40;74.10
68433;DHT22;55412;51.350;17.056;2022-09-11T09:55:59;18.60;75.20
68433;DHT22;55412;51.350;17.056;2022-09-11T09:58:31;18.60;74.90
68433;DHT22;55412;51.350;17.056;2022-09-11T10:00:59;18.70;74.30
68433;DHT22;55412;51.350;17.056;2022-09-11T10:03:25;18.80;73.60
68433;DHT22;55412;51.350;17.056;2022-09-11T10:05:55;18.80;73.20
68433;DHT22;55412;51.350;17.056;2022-09-11T10:08:33;18.90;73.00
68433;DHT22;55412;51.350;17.056;2022-09-11T10:11:02;18.90;72.50
68433;DHT22;55412;51.350;17.056;2022-09-11T10:13:41;18.90;72.40
68433;DHT22;55412;51.350;17.056;2022-09-11T10:16:22;18.90;72.10
68433;DHT22;55412;51.350;17.056;2022-09-11T10:18:50;18.90;72.60
68433;DHT22;55412;51.350;17.056;2022-09-11T10:21:27;18.90;71.80
68433;DHT22;55412;51.350;17.056;2022-09-11T10:29:33;18.80;71.10
68433;DHT22;55412;51.350;17.056;2022-09-11T10:31:56;18.80;71.30
68433;DHT22;55412;51.350;17.056;2022-09-11T10:34:34;18.80;71.60
68433;DHT22;55412;51.350;17.056;2022-09-11T10:39:39;18.70;72.30
68433;DHT22;55412;51.350;17.056;2022-09-11T10:42:19;18.70;71.90
68433;DHT22;55412;51.350;17.056;2022-09-11T10:44:49;18.70;72.00
68433;DHT22;55412;51.350;17.056;2022-09-11T10:55:28;18.80;72.10
68433;DHT22;55412;51.350;17.056;2022-09-11T10:58:21;18.80;72.40
68433;DHT22;55412;51.350;17.056;2022-09-11T11:00:50;18.90;72.80
68433;DHT22;55412;51.350;17.056;2022-09-11T11:03:24;18.90;72.70
68433;DHT22;55412;51.350;17.056;2022-09-11T11:06:14;18.90;72.40
68433;DHT22;55412;51.350;17.056;2022-09-11T11:26:31;18.80;70.90
68433;DHT22;55412;51.350;17.056;2022-09-11T11:32:24;18.80;71.80
68433;DHT22;55412;51.350;17.056;2022-09-11T11:35:21;18.70;72.20
68433;DHT22;55412;51.350;17.056;2022-09-11T11:37:58;18.60;72.70
68433;DHT22;55412;51.350;17.056;2022-09-11T11:40:40;18.50;72.70
68433;DHT22;55412;51.350;17.056;2022-09-11T11:43:13;18.40;73.20
68433;DHT22;55412;51.350;17.056;2022-09-11T11:51:27;18.30;74.10
68433;DHT22;55412;51.350;17.056;2022-09-11T11:54:26;18.20;74.50
68433;DHT22;55412;51.350;17.056;2022-09-11T11:57:13;18.20;74.90
68433;DHT22;55412;51.350;17.056;2022-09-11T12:02:32;18.20;75.40
68433;DHT22;55412;51.350;17.056;2022-09-11T12:05:12;18.30;76.00
68433;DHT22;55412;51.350;17.056;2022-09-11T12:07:42;18.40;75.70
68433;DHT22;55412;51.350;17.056;2022-09-11T12:10:31;18.50;75.60
68433;DHT22;55412;51.350;17.056;2022-09-11T12:13:02;18.60;76.00
68433;DHT22;55412;51.350;17.056;2022-09-11T12:15:32;18.80;74.70
68433;DHT22;55412;51.350;17.056;2022-09-11T12:18:15;18.90;74.70
68433;DHT22;55412;51.350;17.056;2022-09-11T12:20:47;18.90;73.50
68433;DHT22;55412;51.350;17.056;2022-09-11T12:23:33;19.00;72.50
68433;DHT22;55412;51.350;17.056;2022-09-11T12:28:34;19.10;73.10
68433;DHT22;55412;51.350;17.056;2022-09-11T12:31:07;19.30;72.70
68433;DHT22;55412;51.350;17.056;2022-09-11T12:39:23;19.60;69.10
68433;DHT22;55412;51.350;17.056;2022-09-11T12:42:04;19.60;68.80
68433;DHT22;55412;51.350;17.056;2022-09-11T12:52:51;19.50;67.80
68433;DHT22;55412;51.350;17.056;2022-09-11T12:55:29;19.50;68.00
68433;DHT22;55412;51.350;17.056;2022-09-11T12:58:01;19.50;67.60
68433;DHT22;55412;51.350;17.056;2022-09-11T13:00:40;19.40;67.10
68433;DHT22;55412;51.350;17.056;2022-09-11T13:03:16;19.40;67.20
68433;DHT22;55412;51.350;17.056;2022-09-11T13:05:57;19.40;67.80
68433;DHT22;55412;51.350;17.056;2022-09-11T13:08:29;19.40;67.50
68433;DHT22;55412;51.350;17.056;2022-09-11T13:14:37;19.30;67.40
68433;DHT22;55412;51.350;17.056;2022-09-11T13:16:59;19.30;67.30
68433;DHT22;55412;51.350;17.056;2022-09-11T13:19:36;19.30;67.90
68433;DHT22;55412;51.350;17.056;2022-09-11T13:22:24;19.30;68.20
68433;DHT22;55412;51.350;17.056;2022-09-11T13:25:05;19.30;67.90
68433;DHT22;55412;51.350;17.056;2022-09-11T13:28:01;19.30;68.20
68433;DHT22;55412;51.350;17.056;2022-09-11T13:30:32;19.40;68.20
68433;DHT22;55412;51.350;17.056;2022-09-11T13:33:16;19.40;68.00
68433;DHT22;55412;51.350;17.056;2022-09-11T13:35:45;19.30;67.40
68433;DHT22;55412;51.350;17.056;2022-09-11T13:38:24;19.40;67.60
68433;DHT22;55412;51.350;17.056;2022-09-11T13:41:03;19.30;67.90
68433;DHT22;55412;51.350;17.056;2022-09-11T13:43:43;19.40;67.80
68433;DHT22;55412;51.350;17.056;2022-09-11T13:46:18;19.40;67.80
68433;DHT22;55412;51.350;17.056;2022-09-11T13:48:53;19.40;68.00
68433;DHT22;55412;51.350;17.056;2022-09-11T13:51:26;19.40;67.90
68433;DHT22;55412;51.350;17.056;2022-09-11T13:54:17;19.40;67.50
68433;DHT22;55412;51.350;17.056;2022-09-11T14:05:18;19.30;67.20
68433;DHT22;55412;51.350;17.056;2022-09-11T14:12:59;19.20;66.80
68433;DHT22;55412;51.350;17.056;2022-09-11T14:16:06;19.20;66.50
68433;DHT22;55412;51.350;17.056;2022-09-11T14:21:22;19.20;67.00
68433;DHT22;55412;51.350;17.056;2022-09-11T14:23:52;19.20;67.20
68433;DHT22;55412;51.350;17.056;2022-09-11T14:26:42;19.10;67.30
68433;DHT22;55412;51.350;17.056;2022-09-11T14:31:51;19.10;67.50
68433;DHT22;55412;51.350;17.056;2022-09-11T14:34:28;19.10;67.30
68433;DHT22;55412;51.350;17.056;2022-09-11T14:37:04;19.10;67.80
68433;DHT22;55412;51.350;17.056;2022-09-11T14:39:44;19.10;67.80
68433;DHT22;55412;51.350;17.056;2022-09-11T14:42:16;19.10;67.80
68433;DHT22;55412;51.350;17.056;2022-09-11T14:44:45;19.10;68.20
68433;DHT22;55412;51.350;17.056;2022-09-11T14:47:20;19.10;67.90
68433;DHT22;55412;51.350;17.056;2022-09-11T14:49:50;19.00;68.10
68433;DHT22;55412;51.350;17.056;2022-09-11T14:52:20;19.00;68.70
68433;DHT22;55412;51.350;17.056;2022-09-11T14:54:48;19.00;68.90
68433;DHT22;55412;51.350;17.056;2022-09-11T14:57:20;19.10;68.20
68433;DHT22;55412;51.350;17.056;2022-09-11T14:59:48;19.00;67.70
68433;DHT22;55412;51.350;17.056;2022-09-11T15:02:19;19.00;67.30
68433;DHT22;55412;51.350;17.056;2022-09-11T15:04:47;19.00;67.30
68433;DHT22;55412;51.350;17.056;2022-09-11T15:07:14;19.00;67.40
68433;DHT22;55412;51.350;17.056;2022-09-11T15:09:42;19.00;67.70
68433;DHT22;55412;51.350;17.056;2022-09-11T15:12:09;19.00;67.20
68433;DHT22;55412;51.350;17.056;2022-09-11T15:14:37;19.00;67.30
68433;DHT22;55412;51.350;17.056;2022-09-11T15:17:06;18.90;67.40
68433;DHT22;55412;51.350;17.056;2022-09-11T15:19:34;18.90;67.70
68433;DHT22;55412;51.350;17.056;2022-09-11T15:22:00;18.90;66.90
68433;DHT22;55412;51.350;17.056;2022-09-11T15:24:28;18.80;67.20
68433;DHT22;55412;51.350;17.056;2022-09-11T15:26:55;18.80;67.10
68433;DHT22;55412;51.350;17.056;2022-09-11T15:29:23;18.80;67.30
68433;DHT22;55412;51.350;17.056;2022-09-11T15:31:53;18.70;67.80
68433;DHT22;55412;51.350;17.056;2022-09-11T15:34:21;18.70;67.80
68433;DHT22;55412;51.350;17.056;2022-09-11T15:36:48;18.70;67.90
68433;DHT22;55412;51.350;17.056;2022-09-11T15:39:18;18.60;68.00
68433;DHT22;55412;51.350;17.056;2022-09-11T15:41:46;18.60;68.10
68433;DHT22;55412;51.350;17.056;2022-09-11T15:44:18;18.50;68.40
68433;DHT22;55412;51.350;17.056;2022-09-11T15:46:46;18.50;68.20
68433;DHT22;55412;51.350;17.056;2022-09-11T15:49:14;18.50;68.50
68433;DHT22;55412;51.350;17.056;2022-09-11T15:51:41;18.40;68.60
68433;DHT22;55412;51.350;17.056;2022-09-11T15:54:10;18.40;68.90
68433;DHT22;55412;51.350;17.056;2022-09-11T15:56:38;18.40;69.20
68433;DHT22;55412;51.350;17.056;2022-09-11T15:59:06;18.40;69.10
68433;DHT22;55412;51.350;17.056;2022-09-11T16:01:34;18.40;68.90
68433;DHT22;55412;51.350;17.056;2022-09-11T16:04:04;18.40;69.30
68433;DHT22;55412;51.350;17.056;2022-09-11T16:06:34;18.40;69.00
68433;DHT22;55412;51.350;17.056;2022-09-11T16:09:07;18.40;68.80
68433;DHT22;55412;51.350;17.056;2022-09-11T16:11:35;18.30;68.40
68433;DHT22;55412;51.350;17.056;2022-09-11T16:14:04;18.30;68.00
68433;DHT22;55412;51.350;17.056;2022-09-11T16:16:30;18.30;68.30
68433;DHT22;55412;51.350;17.056;2022-09-11T16:18:56;18.30;68.10
68433;DHT22;55412;51.350;17.056;2022-09-11T16:21:23;18.30;67.70
68433;DHT22;55412;51.350;17.056;2022-09-11T16:23:51;18.20;67.90
68433;DHT22;55412;51.350;17.056;2022-09-11T16:26:19;18.20;67.50
68433;DHT22;55412;51.350;17.056;2022-09-11T16:28:48;18.20;67.40
68433;DHT22;55412;51.350;17.056;2022-09-11T16:31:14;18.10;67.10
68433;DHT22;55412;51.350;17.056;2022-09-11T16:33:42;18.10;67.30
68433;DHT22;55412;51.350;17.056;2022-09-11T16:36:15;18.10;67.60
68433;DHT22;55412;51.350;17.056;2022-09-11T16:38:44;18.10;67.50
68433;DHT22;55412;51.350;17.056;2022-09-11T16:41:15;18.10;67.70
68433;DHT22;55412;51.350;17.056;2022-09-11T16:43:48;18.10;67.90
68433;DHT22;55412;51.350;17.056;2022-09-11T16:46:24;18.10;68.30
68433;DHT22;55412;51.350;17.056;2022-09-11T16:48:52;18.10;68.30
68433;DHT22;55412;51.350;17.056;2022-09-11T16:51:20;18.10;68.60
68433;DHT22;55412;51.350;17.056;2022-09-11T16:53:47;18.00;68.80
68433;DHT22;55412;51.350;17.056;2022-09-11T16:56:17;18.00;69.00
68433;DHT22;55412;51.350;17.056;2022-09-11T16:58:45;18.00;69.40
68433;DHT22;55412;51.350;17.056;2022-09-11T17:01:17;18.00;69.80
68433;DHT22;55412;51.350;17.056;2022-09-11T17:03:46;18.00;69.80
68433;DHT22;55412;51.350;17.056;2022-09-11T17:06:14;17.90;69.90
68433;DHT22;55412;51.350;17.056;2022-09-11T17:08:42;17.90;70.10
68433;DHT22;55412;51.350;17.056;2022-09-11T17:11:12;17.90;70.30
68433;DHT22;55412;51.350;17.056;2022-09-11T17:13:41;17.90;70.50
68433;DHT22;55412;51.350;17.056;2022-09-11T17:16:14;17.90;70.50
68433;DHT22;55412;51.350;17.056;2022-09-11T17:18:46;17.90;70.40
68433;DHT22;55412;51.350;17.056;2022-09-11T17:21:15;17.80;70.30
68433;DHT22;55412;51.350;17.056;2022-09-11T17:23:42;17.80;70.40
68433;DHT22;55412;51.350;17.056;2022-09-11T17:26:11;17.80;70.10
68433;DHT22;55412;51.350;17.056;2022-09-11T17:28:39;17.80;70.10
68433;DHT22;55412;51.350;17.056;2022-09-11T17:31:08;17.70;70.40
68433;DHT22;55412;51.350;17.056;2022-09-11T17:33:37;17.70;70.30
68433;DHT22;55412;51.350;17.056;2022-09-11T17:36:06;17.70;70.60
68433;DHT22;55412;51.350;17.056;2022-09-11T17:38:35;17.70;70.80
68433;DHT22;55412;51.350;17.056;2022-09-11T17:41:04;17.70;71.10
68433;DHT22;55412;51.350;17.056;2022-09-11T17:43:31;17.60;71.20
68433;DHT22;55412;51.350;17.056;2022-09-11T17:46:06;17.60;71.50
68433;DHT22;55412;51.350;17.056;2022-09-11T17:48:35;17.50;71.90
68433;DHT22;55412;51.350;17.056;2022-09-11T17:51:05;17.50;72.20
68433;DHT22;55412;51.350;17.056;2022-09-11T17:53:36;17.50;72.40
68433;DHT22;55412;51.350;17.056;2022-09-11T17:56:09;17.40;72.60
68433;DHT22;55412;51.350;17.056;2022-09-11T17:58:37;17.40;72.60
68433;DHT22;55412;51.350;17.056;2022-09-11T18:01:05;17.40;72.80
68433;DHT22;55412;51.350;17.056;2022-09-11T18:03:33;17.40;72.70
68433;DHT22;55412;51.350;17.056;2022-09-11T18:06:01;17.30;72.80
68433;DHT22;55412;51.350;17.056;2022-09-11T18:08:28;17.30;73.00
68433;DHT22;55412;51.350;17.056;2022-09-11T18:10:59;17.30;73.00
68433;DHT22;55412;51.350;17.056;2022-09-11T18:13:28;17.20;73.20